Scroll down
FLIGHT INFORMATION
PMDG Flight Operations

PFO744

At Arrival Gate

KBWI
 KSLC
DATE: 2018-12-23
GATE:  -
GATE DEPARTURE: 04:43
TAKEOFF: 04:49
DATE: 2018-12-23
GATE:  -
LANDING: 08:29
GATE ARRIVAL: 08:39
FLIGHT DATA
Crew: 
Speed: 
504 kts
Altitude: 
35,001 ft
Stage Length: 
1,616.4 nm
Block Time: 
3.9 hrs
Flight Time: 
3.7 hrs
Fuel Used: 
84,702 lb
Cleared Route: WONCE TERPZ LINSE BUFFR MCRAY DJB PMM MCW ONL BFF OCS KAADE CICAK LHO CARTR NORDK WEBER
TRACK DATA
50,000 ft 1,000 kts
AIRCRAFT INFO AND CUMULATIVE STATS
Aircraft Type: 
B744ERF
Registration: 
SELCAL: 
MSN/LN: 
0 / 1
Total Flights: 
11
Total Block Time: 
21.7 hrs
Total Flight Time: 
18.8 hrs
Total Fuel Time: 
422,343 lb
DATALINK LOG | Newest first | Current as of: 2021-04-19 09:43:27
LABEL SEQUENCE CONTENT Dn/Up
QD393708:39 33.5▼ Dn
QC290508:29▼ Dn
QB495104:49▼ Dn
QA431204:43 118.2▼ Dn
5U3932KBWI 222320Z 2300/2406 29010G17KT P6SM FEW035 FM230300 28007KT P6SM FEW250 FM231100 VRB03KT P6SM FEW150 FM232100 15005KT P6SM BKN100▲ Up
5U3932KSLC 230232Z 2303/2406 15005KT P6SM SCT100 BKN200 FM230900 15006KT P6SM BKN100 BKN200 FM232200 32006KT P6SM VCSH SCT040 BKN080▲ Up
5S2957KBWI KSLC▼ Dn
2U3932KSLC 230454Z 15006KT 10SM FEW200 M02/M08 A3034 RMK AO2 SLP289 T10221078 $▲ Up
2U3932KBWI 230454Z 27007KT 10SM SCT040 03/M01 A3009 RMK AO2 SLP191 T00331011 401060028▲ Up
2S2947KBWI KSLC▼ Dn


AIRCRAFT HISTORY
FLIGHT DATE FLIGHT NO. ORIGIN DESTINATION CLEARED ROUTE BLOCK TIME FLIGHT TIME FUEL USED PILOT
2020-11-22PFO519KFAR KFSD KFAR FAR RUSTD BANEY GUVEY RIRCO STUCK ATY VESTY OBITT VOLGA FSD KFSD0.8 hrs0.7 hrs19,597 lbChemtrails
2020-11-22PFO519KOSH KFAR KOSH BGOSH STARR KFAR1.2 hrs1.1 hrs28,816 lbChemtrails
2020-07-20PFO719KMSP KOSH KMSP TAXEE COULT LMFRY DLL OSH RW361.2 hrs0.9 hrs22,634 lbKyle Weber
2020-07-01PFO701KSTL KMSP KSTL WOLTR CONRR KSHEE LEBOY SEXTN MNOSO KICKR OOPEE LAZYY BLUEM HHAMR FARBO ELLKO SAVVG GREAK DOLEE ZESTY RW12R1.4 hrs1.1 hrs25,342 lbKyle Weber
2019-04-14PFO519KDEN KSTL KDEN EXTAN CABET SHAYK MCI ANX HEBNA KOOOP NATEM KAYLA BGMAC DNISE ELBRT STAAN SADEN RW12R2.3 hrs1.9 hrs46,235 lbChemtrails
2019-04-07PFO801KSLC KDEN KSLC PERTY CHE KDEN1.4 hrs1 hrs22,321 lbJhan Jensen
2019-02-16KMIA KSLC KMIA OHOFO BORLE MEAGN WINCO DOLIE SRQ CHRGE REMIS ROZZI NAITE REDFN LEV LCH ACT HICOE ABI TXO TCC CIM ALS JNC RIFMN HELPR GOSHU SPANE LEEHY BLUPE KAMMP PLAGE PLAGE RW34R4.4 hrs4.1 hrs82,410 lbJhan Jensen
2019-01-30PFO129KFLL KMIA KFLL GRITT SARCO RW270.4 hrs0.2 hrs6,953 lbKyle Weber
2019-01-29PFO128KMIA KFLL KMIA FLL PIONN RW10L0.5 hrs0.2 hrs7,537 lbKyle Weber
2019-01-22PFO122KSLC KMIA BUBBY RUGGD UPJAR BORZI EKR PITMN TAYLR GOSIP KENTO PNH SPS BATIK FUZ ADUKE LURIC NOBBL TURNN FOSIN AEX PEBBY HRV FATSO REDFN BLVNS BUNNZ BACCA CIGAR BAGGS BAARY CYY DEEDS SSCOT RUBOE WALIP LECIT4.2 hrs4 hrs75,798 lbKyle Weber
2018-12-23PFO744KBWI KSLC WONCE TERPZ LINSE BUFFR MCRAY DJB PMM MCW ONL BFF OCS KAADE CICAK LHO CARTR NORDK WEBER3.9 hrs3.7 hrs84,702 lbJhan Jensen